sensor_id;sensor_type;location;lat;lon;timestamp;temperature;humidity
9271;DHT22;4673;53.458;9.940;2022-09-09T00:04:38;13.60;99.90
9271;DHT22;4673;53.458;9.940;2022-09-09T00:07:20;13.70;99.90
9271;DHT22;4673;53.458;9.940;2022-09-09T00:16:00;13.80;99.90
9271;DHT22;4673;53.458;9.940;2022-09-09T00:21:25;13.90;99.90
9271;DHT22;4673;53.458;9.940;2022-09-09T00:23:54;14.00;99.90
9271;DHT22;4673;53.458;9.940;2022-09-09T00:26:22;13.90;99.90
9271;DHT22;4673;53.458;9.940;2022-09-09T00:28:57;14.00;99.90
9271;DHT22;4673;53.458;9.940;2022-09-09T00:31:28;14.00;99.90
9271;DHT22;4673;53.458;9.940;2022-09-09T00:33:55;14.00;99.90
9271;DHT22;4673;53.458;9.940;2022-09-09T00:36:24;14.00;99.90
9271;DHT22;4673;53.458;9.940;2022-09-09T00:38:56;14.00;99.90
9271;DHT22;4673;53.458;9.940;2022-09-09T00:41:45;14.10;99.90
9271;DHT22;4673;53.458;9.940;2022-09-09T00:44:33;14.10;99.90
9271;DHT22;4673;53.458;9.940;2022-09-09T00:55:54;14.00;99.90
9271;DHT22;4673;53.458;9.940;2022-09-09T00:58:24;14.10;99.90
9271;DHT22;4673;53.458;9.940;2022-09-09T01:01:10;13.90;99.90
9271;DHT22;4673;53.458;9.940;2022-09-09T01:03:53;14.00;99.90
9271;DHT22;4673;53.458;9.940;2022-09-09T01:06:34;13.90;99.90
9271;DHT22;4673;53.458;9.940;2022-09-09T01:17:28;13.60;99.90
9271;DHT22;4673;53.458;9.940;2022-09-09T01:23:10;13.40;99.90
9271;DHT22;4673;53.458;9.940;2022-09-09T01:28:26;13.30;99.90
9271;DHT22;4673;53.458;9.940;2022-09-09T01:30:53;13.30;99.90
9271;DHT22;4673;53.458;9.940;2022-09-09T01:33:20;13.20;99.90
9271;DHT22;4673;53.458;9.940;2022-09-09T01:36:31;13.20;99.90
9271;DHT22;4673;53.458;9.940;2022-09-09T01:38:37;13.10;99.90
9271;DHT22;4673;53.458;9.940;2022-09-09T01:41:04;13.10;99.90
9271;DHT22;4673;53.458;9.940;2022-09-09T01:43:30;13.00;99.90
9271;DHT22;4673;53.458;9.940;2022-09-09T01:45:58;13.00;99.90
9271;DHT22;4673;53.458;9.940;2022-09-09T01:48:25;13.00;99.90
9271;DHT22;4673;53.458;9.940;2022-09-09T01:50:51;13.00;99.90
9271;DHT22;4673;53.458;9.940;2022-09-09T01:53:18;13.00;99.90
9271;DHT22;4673;53.458;9.940;2022-09-09T01:56:14;12.90;99.90
9271;DHT22;4673;53.458;9.940;2022-09-09T02:03:51;12.90;99.90
9271;DHT22;4673;53.458;9.940;2022-09-09T02:06:36;12.90;99.90
9271;DHT22;4673;53.458;9.940;2022-09-09T02:09:05;12.90;99.90
9271;DHT22;4673;53.458;9.940;2022-09-09T02:11:32;12.90;99.90
9271;DHT22;4673;53.458;9.940;2022-09-09T02:16:43;12.90;99.90
9271;DHT22;4673;53.458;9.940;2022-09-09T02:21:45;12.90;99.90
9271;DHT22;4673;53.458;9.940;2022-09-09T02:24:14;12.90;99.90
9271;DHT22;4673;53.458;9.940;2022-09-09T02:26:42;13.00;99.90
9271;DHT22;4673;53.458;9.940;2022-09-09T02:29:19;12.90;99.90
9271;DHT22;4673;53.458;9.940;2022-09-09T02:31:47;12.90;99.90
9271;DHT22;4673;53.458;9.940;2022-09-09T02:34:17;12.90;99.90
9271;DHT22;4673;53.458;9.940;2022-09-09T02:36:46;12.80;99.90
9271;DHT22;4673;53.458;9.940;2022-09-09T02:39:13;12.80;99.90
9271;DHT22;4673;53.458;9.940;2022-09-09T02:41:40;12.80;99.90
9271;DHT22;4673;53.458;9.940;2022-09-09T02:44:14;12.80;99.90
9271;DHT22;4673;53.458;9.940;2022-09-09T02:52:13;12.80;99.90
9271;DHT22;4673;53.458;9.940;2022-09-09T02:54:42;12.80;99.90
9271;DHT22;4673;53.458;9.940;2022-09-09T02:57:38;12.90;99.90
9271;DHT22;4673;53.458;9.940;2022-09-09T03:00:04;12.80;99.90
9271;DHT22;4673;53.458;9.940;2022-09-09T03:02:30;12.80;99.90
9271;DHT22;4673;53.458;9.940;2022-09-09T03:04:56;12.80;99.90
9271;DHT22;4673;53.458;9.940;2022-09-09T03:07:22;12.70;99.90
9271;DHT22;4673;53.458;9.940;2022-09-09T03:09:47;12.70;99.90
9271;DHT22;4673;53.458;9.940;2022-09-09T03:12:14;12.70;99.90
9271;DHT22;4673;53.458;9.940;2022-09-09T03:14:39;12.60;99.90
9271;DHT22;4673;53.458;9.940;2022-09-09T03:17:05;12.60;99.90
9271;DHT22;4673;53.458;9.940;2022-09-09T03:19:31;12.60;99.90
9271;DHT22;4673;53.458;9.940;2022-09-09T03:22:00;12.50;99.90
9271;DHT22;4673;53.458;9.940;2022-09-09T03:26:59;12.40;99.90
9271;DHT22;4673;53.458;9.940;2022-09-09T03:29:24;12.40;99.90
9271;DHT22;4673;53.458;9.940;2022-09-09T03:31:50;12.40;99.90
9271;DHT22;4673;53.458;9.940;2022-09-09T03:34:16;12.40;99.90
9271;DHT22;4673;53.458;9.940;2022-09-09T03:36:41;12.30;99.90
9271;DHT22;4673;53.458;9.940;2022-09-09T03:39:07;12.30;99.90
9271;DHT22;4673;53.458;9.940;2022-09-09T03:41:33;12.30;99.90
9271;DHT22;4673;53.458;9.940;2022-09-09T03:43:59;12.40;99.90
9271;DHT22;4673;53.458;9.940;2022-09-09T03:46:25;12.30;99.90
9271;DHT22;4673;53.458;9.940;2022-09-09T03:48:51;12.40;99.90
9271;DHT22;4673;53.458;9.940;2022-09-09T03:51:18;12.30;99.90
9271;DHT22;4673;53.458;9.940;2022-09-09T03:53:44;12.40;99.90
9271;DHT22;4673;53.458;9.940;2022-09-09T03:56:09;12.40;99.90
9271;DHT22;4673;53.458;9.940;2022-09-09T03:58:36;12.30;99.90
9271;DHT22;4673;53.458;9.940;2022-09-09T04:01:10;12.40;99.90
9271;DHT22;4673;53.458;9.940;2022-09-09T04:03:38;12.30;99.90
9271;DHT22;4673;53.458;9.940;2022-09-09T04:06:05;12.30;99.90
9271;DHT22;4673;53.458;9.940;2022-09-09T04:08:33;12.30;99.90
9271;DHT22;4673;53.458;9.940;2022-09-09T04:11:01;12.40;99.90
9271;DHT22;4673;53.458;9.940;2022-09-09T04:13:30;12.30;99.90
9271;DHT22;4673;53.458;9.940;2022-09-09T04:15:58;12.40;99.90
9271;DHT22;4673;53.458;9.940;2022-09-09T04:18:24;12.50;99.90
9271;DHT22;4673;53.458;9.940;2022-09-09T04:20:52;12.50;99.90
9271;DHT22;4673;53.458;9.940;2022-09-09T04:23:18;12.40;99.90
9271;DHT22;4673;53.458;9.940;2022-09-09T04:25:49;12.50;99.90
9271;DHT22;4673;53.458;9.940;2022-09-09T04:28:16;12.50;99.90
9271;DHT22;4673;53.458;9.940;2022-09-09T04:30:43;12.60;99.90
9271;DHT22;4673;53.458;9.940;2022-09-09T04:33:09;12.70;99.90
9271;DHT22;4673;53.458;9.940;2022-09-09T04:35:36;12.70;99.90
9271;DHT22;4673;53.458;9.940;2022-09-09T04:38:02;12.80;99.90
9271;DHT22;4673;53.458;9.940;2022-09-09T04:40:29;12.80;99.90
9271;DHT22;4673;53.458;9.940;2022-09-09T04:42:55;12.90;99.90
9271;DHT22;4673;53.458;9.940;2022-09-09T04:45:22;13.00;99.90
9271;DHT22;4673;53.458;9.940;2022-09-09T04:47:48;12.90;99.90
9271;DHT22;4673;53.458;9.940;2022-09-09T04:50:14;12.90;99.90
9271;DHT22;4673;53.458;9.940;2022-09-09T04:52:40;12.90;99.90
9271;DHT22;4673;53.458;9.940;2022-09-09T04:55:07;12.90;99.90
9271;DHT22;4673;53.458;9.940;2022-09-09T04:57:34;12.80;99.90
9271;DHT22;4673;53.458;9.940;2022-09-09T04:59:59;12.80;99.90
9271;DHT22;4673;53.458;9.940;2022-09-09T05:02:26;12.70;99.90
9271;DHT22;4673;53.458;9.940;2022-09-09T05:04:51;12.70;99.90
9271;DHT22;4673;53.458;9.940;2022-09-09T05:07:17;12.70;99.90
9271;DHT22;4673;53.458;9.940;2022-09-09T05:09:42;12.60;99.90
9271;DHT22;4673;53.458;9.940;2022-09-09T05:12:08;12.60;99.90
9271;DHT22;4673;53.458;9.940;2022-09-09T05:14:34;12.60;99.90
9271;DHT22;4673;53.458;9.940;2022-09-09T05:17:03;12.70;99.90
9271;DHT22;4673;53.458;9.940;2022-09-09T05:19:28;12.60;99.90
9271;DHT22;4673;53.458;9.940;2022-09-09T05:21:54;12.70;99.90
9271;DHT22;4673;53.458;9.940;2022-09-09T05:24:19;12.80;99.90
9271;DHT22;4673;53.458;9.940;2022-09-09T05:26:45;12.80;99.90
9271;DHT22;4673;53.458;9.940;2022-09-09T05:29:10;12.90;99.90
9271;DHT22;4673;53.458;9.940;2022-09-09T05:31:36;12.90;99.90
9271;DHT22;4673;53.458;9.940;2022-09-09T05:34:02;13.10;99.90
9271;DHT22;4673;53.458;9.940;2022-09-09T05:36:28;13.20;99.90
9271;DHT22;4673;53.458;9.940;2022-09-09T05:38:53;13.20;99.90
9271;DHT22;4673;53.458;9.940;2022-09-09T05:41:19;13.40;99.90
9271;DHT22;4673;53.458;9.940;2022-09-09T05:43:46;13.50;99.90
9271;DHT22;4673;53.458;9.940;2022-09-09T05:46:20;13.60;99.90
9271;DHT22;4673;53.458;9.940;2022-09-09T05:48:47;13.70;99.90
9271;DHT22;4673;53.458;9.940;2022-09-09T05:51:21;13.80;99.90
9271;DHT22;4673;53.458;9.940;2022-09-09T05:53:48;13.80;99.90
9271;DHT22;4673;53.458;9.940;2022-09-09T05:56:17;13.90;99.90
9271;DHT22;4673;53.458;9.940;2022-09-09T05:58:43;13.90;99.90
9271;DHT22;4673;53.458;9.940;2022-09-09T06:01:11;14.00;99.90
9271;DHT22;4673;53.458;9.940;2022-09-09T06:03:40;14.00;99.90
9271;DHT22;4673;53.458;9.940;2022-09-09T06:06:08;14.00;99.90
9271;DHT22;4673;53.458;9.940;2022-09-09T06:08:39;13.90;99.90
9271;DHT22;4673;53.458;9.940;2022-09-09T06:11:07;13.90;99.90
9271;DHT22;4673;53.458;9.940;2022-09-09T06:13:33;14.00;99.90
9271;DHT22;4673;53.458;9.940;2022-09-09T06:16:00;14.00;99.90
9271;DHT22;4673;53.458;9.940;2022-09-09T06:18:26;14.00;99.90
9271;DHT22;4673;53.458;9.940;2022-09-09T06:20:56;14.10;99.90
9271;DHT22;4673;53.458;9.940;2022-09-09T06:23:23;14.00;99.90
9271;DHT22;4673;53.458;9.940;2022-09-09T06:25:49;14.20;99.90
9271;DHT22;4673;53.458;9.940;2022-09-09T06:28:15;14.20;99.90
9271;DHT22;4673;53.458;9.940;2022-09-09T06:30:41;14.30;99.90
9271;DHT22;4673;53.458;9.940;2022-09-09T06:33:07;14.30;99.90
9271;DHT22;4673;53.458;9.940;2022-09-09T06:35:32;14.40;99.90
9271;DHT22;4673;53.458;9.940;2022-09-09T06:37:58;14.40;99.90
9271;DHT22;4673;53.458;9.940;2022-09-09T06:40:24;14.40;99.90
9271;DHT22;4673;53.458;9.940;2022-09-09T06:42:50;14.50;99.90
9271;DHT22;4673;53.458;9.940;2022-09-09T06:45:17;14.60;99.90
9271;DHT22;4673;53.458;9.940;2022-09-09T06:47:43;14.70;99.90
9271;DHT22;4673;53.458;9.940;2022-09-09T06:50:09;14.90;99.90
9271;DHT22;4673;53.458;9.940;2022-09-09T06:52:36;15.00;99.90
9271;DHT22;4673;53.458;9.940;2022-09-09T06:55:02;15.10;99.90
9271;DHT22;4673;53.458;9.940;2022-09-09T06:57:28;15.20;99.90
9271;DHT22;4673;53.458;9.940;2022-09-09T06:59:53;15.40;99.90
9271;DHT22;4673;53.458;9.940;2022-09-09T07:02:19;15.40;99.90
9271;DHT22;4673;53.458;9.940;2022-09-09T07:04:45;15.40;99.90
9271;DHT22;4673;53.458;9.940;2022-09-09T07:07:11;15.50;99.90
9271;DHT22;4673;53.458;9.940;2022-09-09T07:09:39;15.60;99.90
9271;DHT22;4673;53.458;9.940;2022-09-09T07:12:05;15.70;99.90
9271;DHT22;4673;53.458;9.940;2022-09-09T07:14:32;15.70;99.90
9271;DHT22;4673;53.458;9.940;2022-09-09T07:16:59;15.70;99.90
9271;DHT22;4673;53.458;9.940;2022-09-09T07:19:25;15.80;99.90
9271;DHT22;4673;53.458;9.940;2022-09-09T07:21:51;15.90;99.90
9271;DHT22;4673;53.458;9.940;2022-09-09T07:24:17;16.00;99.90
9271;DHT22;4673;53.458;9.940;2022-09-09T07:26:42;16.10;99.90
9271;DHT22;4673;53.458;9.940;2022-09-09T07:29:09;16.30;99.90
9271;DHT22;4673;53.458;9.940;2022-09-09T07:31:37;16.40;99.90
9271;DHT22;4673;53.458;9.940;2022-09-09T07:34:03;16.40;99.90
9271;DHT22;4673;53.458;9.940;2022-09-09T07:36:32;16.40;99.90
9271;DHT22;4673;53.458;9.940;2022-09-09T07:39:00;16.40;99.90
9271;DHT22;4673;53.458;9.940;2022-09-09T07:41:30;16.40;99.90
9271;DHT22;4673;53.458;9.940;2022-09-09T07:43:58;16.40;99.90
9271;DHT22;4673;53.458;9.940;2022-09-09T07:46:26;16.40;99.90
9271;DHT22;4673;53.458;9.940;2022-09-09T07:48:54;16.50;99.90
9271;DHT22;4673;53.458;9.940;2022-09-09T07:51:25;16.60;99.90
9271;DHT22;4673;53.458;9.940;2022-09-09T07:53:54;16.70;99.90
9271;DHT22;4673;53.458;9.940;2022-09-09T07:56:20;16.90;99.90
9271;DHT22;4673;53.458;9.940;2022-09-09T07:58:50;17.00;99.90
9271;DHT22;4673;53.458;9.940;2022-09-09T08:01:20;17.00;99.90
9271;DHT22;4673;53.458;9.940;2022-09-09T08:03:47;17.10;99.90
9271;DHT22;4673;53.458;9.940;2022-09-09T08:06:17;17.20;99.90
9271;DHT22;4673;53.458;9.940;2022-09-09T08:08:43;17.20;99.90
9271;DHT22;4673;53.458;9.940;2022-09-09T08:11:14;17.20;99.90
9271;DHT22;4673;53.458;9.940;2022-09-09T08:13:42;17.40;99.90
9271;DHT22;4673;53.458;9.940;2022-09-09T08:16:10;17.50;99.90
9271;DHT22;4673;53.458;9.940;2022-09-09T08:18:37;17.60;99.90
9271;DHT22;4673;53.458;9.940;2022-09-09T08:21:17;17.70;99.90
9271;DHT22;4673;53.458;9.940;2022-09-09T08:23:44;17.80;99.90
9271;DHT22;4673;53.458;9.940;2022-09-09T08:26:26;17.90;99.90
9271;DHT22;4673;53.458;9.940;2022-09-09T08:28:54;18.00;99.70
9271;DHT22;4673;53.458;9.940;2022-09-09T08:31:24;18.10;99.10
9271;DHT22;4673;53.458;9.940;2022-09-09T08:33:50;18.10;97.60
9271;DHT22;4673;53.458;9.940;2022-09-09T08:36:20;18.20;97.10
9271;DHT22;4673;53.458;9.940;2022-09-09T08:38:51;18.20;96.80
9271;DHT22;4673;53.458;9.940;2022-09-09T08:46:38;18.70;96.00
9271;DHT22;4673;53.458;9.940;2022-09-09T08:49:23;18.90;95.70
9271;DHT22;4673;53.458;9.940;2022-09-09T08:51:53;19.00;94.50
9271;DHT22;4673;53.458;9.940;2022-09-09T08:54:20;19.30;92.30
9271;DHT22;4673;53.458;9.940;2022-09-09T08:56:47;19.30;89.50
9271;DHT22;4673;53.458;9.940;2022-09-09T08:59:16;19.50;88.90
9271;DHT22;4673;53.458;9.940;2022-09-09T09:02:04;19.70;87.40
9271;DHT22;4673;53.458;9.940;2022-09-09T09:05:58;19.70;86.50
9271;DHT22;4673;53.458;9.940;2022-09-09T09:07:53;19.70;85.50
9271;DHT22;4673;53.458;9.940;2022-09-09T09:10:46;19.70;83.70
9271;DHT22;4673;53.458;9.940;2022-09-09T09:13:22;19.70;83.30
9271;DHT22;4673;53.458;9.940;2022-09-09T09:15:57;19.70;83.30
9271;DHT22;4673;53.458;9.940;2022-09-09T09:18:26;19.70;82.50
9271;DHT22;4673;53.458;9.940;2022-09-09T09:24:02;20.00;81.40
9271;DHT22;4673;53.458;9.940;2022-09-09T09:26:34;20.00;81.90
9271;DHT22;4673;53.458;9.940;2022-09-09T09:29:11;20.20;80.60
9271;DHT22;4673;53.458;9.940;2022-09-09T09:31:37;20.40;80.90
9271;DHT22;4673;53.458;9.940;2022-09-09T09:34:03;20.60;81.40
9271;DHT22;4673;53.458;9.940;2022-09-09T09:36:44;20.60;78.80
9271;DHT22;4673;53.458;9.940;2022-09-09T09:39:27;20.60;79.90
9271;DHT22;4673;53.458;9.940;2022-09-09T09:41:53;20.80;79.70
9271;DHT22;4673;53.458;9.940;2022-09-09T09:44:30;21.00;78.90
9271;DHT22;4673;53.458;9.940;2022-09-09T09:47:16;21.00;76.90
9271;DHT22;4673;53.458;9.940;2022-09-09T09:49:58;20.80;77.40
9271;DHT22;4673;53.458;9.940;2022-09-09T09:52:31;20.70;76.50
9271;DHT22;4673;53.458;9.940;2022-09-09T09:55:03;20.40;76.50
9271;DHT22;4673;53.458;9.940;2022-09-09T09:57:30;20.40;76.90
9271;DHT22;4673;53.458;9.940;2022-09-09T10:00:17;20.40;76.90
9271;DHT22;4673;53.458;9.940;2022-09-09T10:02:45;20.40;77.20
9271;DHT22;4673;53.458;9.940;2022-09-09T10:05:20;20.40;77.90
9271;DHT22;4673;53.458;9.940;2022-09-09T10:07:47;20.50;77.40
9271;DHT22;4673;53.458;9.940;2022-09-09T10:13:23;20.60;75.90
9271;DHT22;4673;53.458;9.940;2022-09-09T10:16:17;20.60;76.60
9271;DHT22;4673;53.458;9.940;2022-09-09T10:19:09;20.60;76.60
9271;DHT22;4673;53.458;9.940;2022-09-09T10:22:02;20.60;74.90
9271;DHT22;4673;53.458;9.940;2022-09-09T10:30:22;20.80;72.70
9271;DHT22;4673;53.458;9.940;2022-09-09T10:32:57;20.90;71.70
9271;DHT22;4673;53.458;9.940;2022-09-09T10:38:13;20.90;69.10
9271;DHT22;4673;53.458;9.940;2022-09-09T10:43:33;20.70;70.10
9271;DHT22;4673;53.458;9.940;2022-09-09T10:49:17;20.60;71.20
9271;DHT22;4673;53.458;9.940;2022-09-09T10:54:40;20.50;71.20
9271;DHT22;4673;53.458;9.940;2022-09-09T10:59:57;20.40;72.10
9271;DHT22;4673;53.458;9.940;2022-09-09T11:02:29;20.40;72.00
9271;DHT22;4673;53.458;9.940;2022-09-09T11:05:27;20.50;73.00
9271;DHT22;4673;53.458;9.940;2022-09-09T11:08:19;20.80;71.90
9271;DHT22;4673;53.458;9.940;2022-09-09T11:16:25;21.10;69.80
9271;DHT22;4673;53.458;9.940;2022-09-09T11:19:04;21.00;69.30
9271;DHT22;4673;53.458;9.940;2022-09-09T11:21:40;21.00;69.10
9271;DHT22;4673;53.458;9.940;2022-09-09T11:24:16;21.20;69.90
9271;DHT22;4673;53.458;9.940;2022-09-09T11:27:00;21.30;68.80
9271;DHT22;4673;53.458;9.940;2022-09-09T11:40:58;21.90;65.80
9271;DHT22;4673;53.458;9.940;2022-09-09T11:43:30;21.80;65.70
9271;DHT22;4673;53.458;9.940;2022-09-09T11:45:59;21.80;66.20
9271;DHT22;4673;53.458;9.940;2022-09-09T11:48:36;21.70;66.10
9271;DHT22;4673;53.458;9.940;2022-09-09T11:51:06;21.70;66.60
9271;DHT22;4673;53.458;9.940;2022-09-09T11:53:34;21.70;65.50
9271;DHT22;4673;53.458;9.940;2022-09-09T11:58:37;21.50;65.80
9271;DHT22;4673;53.458;9.940;2022-09-09T12:01:15;21.50;65.90
9271;DHT22;4673;53.458;9.940;2022-09-09T12:03:50;21.70;67.60
9271;DHT22;4673;53.458;9.940;2022-09-09T12:06:30;22.00;66.70
9271;DHT22;4673;53.458;9.940;2022-09-09T12:09:19;22.40;65.30
9271;DHT22;4673;53.458;9.940;2022-09-09T12:11:49;22.70;61.40
9271;DHT22;4673;53.458;9.940;2022-09-09T12:17:24;23.20;60.00
9271;DHT22;4673;53.458;9.940;2022-09-09T12:20:11;23.40;57.00
9271;DHT22;4673;53.458;9.940;2022-09-09T12:22:41;23.40;57.90
9271;DHT22;4673;53.458;9.940;2022-09-09T12:28:00;23.10;60.10
9271;DHT22;4673;53.458;9.940;2022-09-09T12:30:48;22.80;60.40
9271;DHT22;4673;53.458;9.940;2022-09-09T12:33:18;22.70;61.30
9271;DHT22;4673;53.458;9.940;2022-09-09T12:35:50;22.60;61.20
9271;DHT22;4673;53.458;9.940;2022-09-09T12:38:27;22.50;60.80
9271;DHT22;4673;53.458;9.940;2022-09-09T12:40:56;22.30;60.00
9271;DHT22;4673;53.458;9.940;2022-09-09T12:43:24;22.10;61.50
9271;DHT22;4673;53.458;9.940;2022-09-09T12:45:52;22.00;61.80
9271;DHT22;4673;53.458;9.940;2022-09-09T12:48:29;21.80;63.30
9271;DHT22;4673;53.458;9.940;2022-09-09T12:50:56;21.50;64.80
9271;DHT22;4673;53.458;9.940;2022-09-09T12:53:26;21.10;65.30
9271;DHT22;4673;53.458;9.940;2022-09-09T12:56:07;20.90;66.70
9271;DHT22;4673;53.458;9.940;2022-09-09T12:58:35;20.60;68.60
9271;DHT22;4673;53.458;9.940;2022-09-09T13:01:03;20.30;70.20
9271;DHT22;4673;53.458;9.940;2022-09-09T13:03:31;20.20;71.60
9271;DHT22;4673;53.458;9.940;2022-09-09T13:06:24;19.90;72.90
9271;DHT22;4673;53.458;9.940;2022-09-09T13:08:54;19.20;73.50
9271;DHT22;4673;53.458;9.940;2022-09-09T13:11:29;18.30;73.70
9271;DHT22;4673;53.458;9.940;2022-09-09T13:13:57;17.60;76.50
9271;DHT22;4673;53.458;9.940;2022-09-09T13:16:26;17.10;79.50
9271;DHT22;4673;53.458;9.940;2022-09-09T13:18:56;16.80;81.80
9271;DHT22;4673;53.458;9.940;2022-09-09T13:21:32;16.50;84.00
9271;DHT22;4673;53.458;9.940;2022-09-09T13:23:57;16.20;86.10
9271;DHT22;4673;53.458;9.940;2022-09-09T13:26:29;16.10;88.00
9271;DHT22;4673;53.458;9.940;2022-09-09T13:29:07;16.10;89.50
9271;DHT22;4673;53.458;9.940;2022-09-09T13:31:36;16.10;90.40
9271;DHT22;4673;53.458;9.940;2022-09-09T13:34:34;16.10;91.60
9271;DHT22;4673;53.458;9.940;2022-09-09T13:37:03;16.10;92.40
9271;DHT22;4673;53.458;9.940;2022-09-09T13:39:33;16.10;93.10
9271;DHT22;4673;53.458;9.940;2022-09-09T13:42:00;16.10;93.60
9271;DHT22;4673;53.458;9.940;2022-09-09T13:44:38;16.10;94.10
9271;DHT22;4673;53.458;9.940;2022-09-09T13:47:17;16.10;94.40
9271;DHT22;4673;53.458;9.940;2022-09-09T13:49:44;16.10;94.80
9271;DHT22;4673;53.458;9.940;2022-09-09T13:52:16;16.10;95.30
9271;DHT22;4673;53.458;9.940;2022-09-09T13:54:43;16.10;95.70
9271;DHT22;4673;53.458;9.940;2022-09-09T13:57:24;16.10;96.00
9271;DHT22;4673;53.458;9.940;2022-09-09T13:59:51;16.10;96.30
9271;DHT22;4673;53.458;9.940;2022-09-09T14:02:17;16.10;96.40
9271;DHT22;4673;53.458;9.940;2022-09-09T14:04:44;16.10;96.80
9271;DHT22;4673;53.458;9.940;2022-09-09T14:07:17;16.20;97.10
9271;DHT22;4673;53.458;9.940;2022-09-09T14:09:44;16.20;97.40
9271;DHT22;4673;53.458;9.940;2022-09-09T14:12:14;16.20;97.50
9271;DHT22;4673;53.458;9.940;2022-09-09T14:14:41;16.20;97.70
9271;DHT22;4673;53.458;9.940;2022-09-09T14:17:08;16.20;97.50
9271;DHT22;4673;53.458;9.940;2022-09-09T14:19:34;16.10;97.40
9271;DHT22;4673;53.458;9.940;2022-09-09T14:22:00;15.90;97.00
9271;DHT22;4673;53.458;9.940;2022-09-09T14:24:26;15.90;96.80
9271;DHT22;4673;53.458;9.940;2022-09-09T14:26:53;15.70;96.60
9271;DHT22;4673;53.458;9.940;2022-09-09T14:29:18;15.70;96.40
9271;DHT22;4673;53.458;9.940;2022-09-09T14:31:44;15.60;96.40
9271;DHT22;4673;53.458;9.940;2022-09-09T14:34:10;15.60;96.70
9271;DHT22;4673;53.458;9.940;2022-09-09T14:36:39;15.50;96.80
9271;DHT22;4673;53.458;9.940;2022-09-09T14:39:05;15.50;96.80
9271;DHT22;4673;53.458;9.940;2022-09-09T14:41:31;15.50;96.80
9271;DHT22;4673;53.458;9.940;2022-09-09T14:43:57;15.50;97.00
9271;DHT22;4673;53.458;9.940;2022-09-09T14:46:23;15.50;97.20
9271;DHT22;4673;53.458;9.940;2022-09-09T14:48:48;15.50;97.30
9271;DHT22;4673;53.458;9.940;2022-09-09T14:51:19;15.50;97.60
9271;DHT22;4673;53.458;9.940;2022-09-09T14:53:45;15.50;97.80
9271;DHT22;4673;53.458;9.940;2022-09-09T14:56:16;15.60;97.90
9271;DHT22;4673;53.458;9.940;2022-09-09T14:58:42;15.70;98.20
9271;DHT22;4673;53.458;9.940;2022-09-09T15:01:13;15.70;98.40
9271;DHT22;4673;53.458;9.940;2022-09-09T15:03:40;15.80;98.60
9271;DHT22;4673;53.458;9.940;2022-09-09T15:06:08;15.90;98.90
9271;DHT22;4673;53.458;9.940;2022-09-09T15:08:35;16.00;99.10
9271;DHT22;4673;53.458;9.940;2022-09-09T15:11:03;16.10;99.40
9271;DHT22;4673;53.458;9.940;2022-09-09T15:13:29;16.10;99.40
9271;DHT22;4673;53.458;9.940;2022-09-09T15:15:54;16.20;99.50
9271;DHT22;4673;53.458;9.940;2022-09-09T15:18:21;16.10;99.30
9271;DHT22;4673;53.458;9.940;2022-09-09T15:20:47;16.20;99.20
9271;DHT22;4673;53.458;9.940;2022-09-09T15:23:13;16.30;99.30
9271;DHT22;4673;53.458;9.940;2022-09-09T15:25:51;16.50;99.60
9271;DHT22;4673;53.458;9.940;2022-09-09T15:28:17;16.60;99.60
9271;DHT22;4673;53.458;9.940;2022-09-09T15:30:43;16.70;99.60
9271;DHT22;4673;53.458;9.940;2022-09-09T15:33:10;16.80;99.40
9271;DHT22;4673;53.458;9.940;2022-09-09T15:35:36;17.00;99.60
9271;DHT22;4673;53.458;9.940;2022-09-09T15:38:02;17.10;99.30
9271;DHT22;4673;53.458;9.940;2022-09-09T15:40:30;17.20;99.10
9271;DHT22;4673;53.458;9.940;2022-09-09T15:42:58;17.40;98.80
9271;DHT22;4673;53.458;9.940;2022-09-09T15:45:24;17.40;98.00
9271;DHT22;4673;53.458;9.940;2022-09-09T15:47:49;17.50;97.30
9271;DHT22;4673;53.458;9.940;2022-09-09T15:50:15;17.50;96.40
9271;DHT22;4673;53.458;9.940;2022-09-09T15:52:41;17.50;95.50
9271;DHT22;4673;53.458;9.940;2022-09-09T15:55:07;17.50;95.10
9271;DHT22;4673;53.458;9.940;2022-09-09T15:57:36;17.60;93.80
9271;DHT22;4673;53.458;9.940;2022-09-09T16:00:03;17.60;92.70
9271;DHT22;4673;53.458;9.940;2022-09-09T16:02:29;17.70;92.10
9271;DHT22;4673;53.458;9.940;2022-09-09T16:04:56;17.70;91.70
9271;DHT22;4673;53.458;9.940;2022-09-09T16:07:22;17.70;90.60
9271;DHT22;4673;53.458;9.940;2022-09-09T16:09:48;17.80;90.00
9271;DHT22;4673;53.458;9.940;2022-09-09T16:12:16;17.70;89.50
9271;DHT22;4673;53.458;9.940;2022-09-09T16:14:42;17.80;89.40
9271;DHT22;4673;53.458;9.940;2022-09-09T16:17:08;17.80;89.00
9271;DHT22;4673;53.458;9.940;2022-09-09T16:19:34;17.70;88.00
9271;DHT22;4673;53.458;9.940;2022-09-09T16:22:00;17.70;87.20
9271;DHT22;4673;53.458;9.940;2022-09-09T16:24:26;17.60;87.00
9271;DHT22;4673;53.458;9.940;2022-09-09T16:26:53;17.50;87.10
9271;DHT22;4673;53.458;9.940;2022-09-09T16:29:20;17.50;87.20
9271;DHT22;4673;53.458;9.940;2022-09-09T16:31:48;17.30;87.10
9271;DHT22;4673;53.458;9.940;2022-09-09T16:34:16;17.20;87.50
9271;DHT22;4673;53.458;9.940;2022-09-09T16:36:43;17.10;87.80
9271;DHT22;4673;53.458;9.940;2022-09-09T16:39:14;17.10;88.20
9271;DHT22;4673;53.458;9.940;2022-09-09T16:41:41;16.90;88.50
9271;DHT22;4673;53.458;9.940;2022-09-09T16:44:10;16.90;89.10
9271;DHT22;4673;53.458;9.940;2022-09-09T16:46:37;16.80;89.40
9271;DHT22;4673;53.458;9.940;2022-09-09T16:49:09;16.70;89.70
9271;DHT22;4673;53.458;9.940;2022-09-09T16:51:41;16.60;89.70
9271;DHT22;4673;53.458;9.940;2022-09-09T16:54:08;16.50;89.90
9271;DHT22;4673;53.458;9.940;2022-09-09T16:56:36;16.50;90.10
9271;DHT22;4673;53.458;9.940;2022-09-09T16:59:13;16.30;90.30
9271;DHT22;4673;53.458;9.940;2022-09-09T17:01:41;16.30;90.90
9271;DHT22;4673;53.458;9.940;2022-09-09T17:04:14;16.20;91.20
9271;DHT22;4673;53.458;9.940;2022-09-09T17:06:41;16.10;91.60
9271;DHT22;4673;53.458;9.940;2022-09-09T17:09:09;16.00;91.90
9271;DHT22;4673;53.458;9.940;2022-09-09T17:11:36;16.00;92.30
9271;DHT22;4673;53.458;9.940;2022-09-09T17:14:03;15.90;92.50
9271;DHT22;4673;53.458;9.940;2022-09-09T17:16:31;15.80;92.80
9271;DHT22;4673;53.458;9.940;2022-09-09T17:18:57;15.70;93.10
9271;DHT22;4673;53.458;9.940;2022-09-09T17:21:25;15.60;93.30
9271;DHT22;4673;53.458;9.940;2022-09-09T17:23:52;15.60;93.60
9271;DHT22;4673;53.458;9.940;2022-09-09T17:26:20;15.50;93.80
9271;DHT22;4673;53.458;9.940;2022-09-09T17:28:46;15.40;93.80
9271;DHT22;4673;53.458;9.940;2022-09-09T17:31:15;15.30;94.20
9271;DHT22;4673;53.458;9.940;2022-09-09T17:33:42;15.20;94.40
9271;DHT22;4673;53.458;9.940;2022-09-09T17:36:11;15.10;94.70
9271;DHT22;4673;53.458;9.940;2022-09-09T17:38:37;15.00;94.80
9271;DHT22;4673;53.458;9.940;2022-09-09T17:41:09;14.90;95.10
9271;DHT22;4673;53.458;9.940;2022-09-09T17:43:36;14.80;95.30
9271;DHT22;4673;53.458;9.940;2022-09-09T17:48:38;14.60;95.70
9271;DHT22;4673;53.458;9.940;2022-09-09T17:51:05;14.50;95.90
9271;DHT22;4673;53.458;9.940;2022-09-09T17:53:44;14.40;96.10
9271;DHT22;4673;53.458;9.940;2022-09-09T17:56:12;14.30;96.40
9271;DHT22;4673;53.458;9.940;2022-09-09T17:58:39;14.20;96.70
9271;DHT22;4673;53.458;9.940;2022-09-09T18:01:18;14.30;97.10
9271;DHT22;4673;53.458;9.940;2022-09-09T18:03:45;14.20;97.40
9271;DHT22;4673;53.458;9.940;2022-09-09T18:06:15;14.10;97.70
9271;DHT22;4673;53.458;9.940;2022-09-09T18:08:42;14.10;97.90
9271;DHT22;4673;53.458;9.940;2022-09-09T18:11:08;14.00;98.00
9271;DHT22;4673;53.458;9.940;2022-09-09T18:13:34;14.00;98.30